sensor_id;sensor_type;location;lat;lon;timestamp;temperature;humidity
68098;DHT22;54886;47.036;15.466;2023-04-03T00:02:02;7.28;52.36
68098;DHT22;54886;47.036;15.466;2023-04-03T00:04:27;7.22;51.99
68098;DHT22;54886;47.036;15.466;2023-04-03T00:06:53;7.27;51.88
68098;DHT22;54886;47.036;15.466;2023-04-03T00:09:18;7.25;51.88
68098;DHT22;54886;47.036;15.466;2023-04-03T00:11:43;7.22;52.08
68098;DHT22;54886;47.036;15.466;2023-04-03T00:14:09;7.15;51.99
68098;DHT22;54886;47.036;15.466;2023-04-03T00:16:34;7.17;51.94
68098;DHT22;54886;47.036;15.466;2023-04-03T00:19:00;7.10;51.95
68098;DHT22;54886;47.036;15.466;2023-04-03T00:21:25;7.03;52.08
68098;DHT22;54886;47.036;15.466;2023-04-03T00:23:51;7.07;52.16
68098;DHT22;54886;47.036;15.466;2023-04-03T00:26:16;7.03;52.22
68098;DHT22;54886;47.036;15.466;2023-04-03T00:28:42;6.90;52.52
68098;DHT22;54886;47.036;15.466;2023-04-03T00:31:07;6.93;52.54
68098;DHT22;54886;47.036;15.466;2023-04-03T00:33:32;6.85;52.54
68098;DHT22;54886;47.036;15.466;2023-04-03T00:35:58;6.82;52.76
68098;DHT22;54886;47.036;15.466;2023-04-03T00:38:23;6.77;52.69
68098;DHT22;54886;47.036;15.466;2023-04-03T00:40:49;6.75;52.93
68098;DHT22;54886;47.036;15.466;2023-04-03T00:43:21;6.75;52.70
68098;DHT22;54886;47.036;15.466;2023-04-03T00:45:49;6.75;52.51
68098;DHT22;54886;47.036;15.466;2023-04-03T00:48:42;6.72;52.56
68098;DHT22;54886;47.036;15.466;2023-04-03T00:51:14;6.71;52.75
68098;DHT22;54886;47.036;15.466;2023-04-03T00:53:48;6.72;52.71
68098;DHT22;54886;47.036;15.466;2023-04-03T00:56:16;6.65;52.12
68098;DHT22;54886;47.036;15.466;2023-04-03T00:58:48;6.59;53.10
68098;DHT22;54886;47.036;15.466;2023-04-03T01:01:18;6.48;52.76
68098;DHT22;54886;47.036;15.466;2023-04-03T01:03:45;6.51;52.64
68098;DHT22;54886;47.036;15.466;2023-04-03T01:06:11;6.49;52.68
68098;DHT22;54886;47.036;15.466;2023-04-03T01:08:38;6.41;53.18
68098;DHT22;54886;47.036;15.466;2023-04-03T01:11:03;6.37;53.38
68098;DHT22;54886;47.036;15.466;2023-04-03T01:13:31;6.31;53.73
68098;DHT22;54886;47.036;15.466;2023-04-03T01:15:57;6.25;53.50
68098;DHT22;54886;47.036;15.466;2023-04-03T01:18:25;6.24;53.75
68098;DHT22;54886;47.036;15.466;2023-04-03T01:21:14;6.25;53.78
68098;DHT22;54886;47.036;15.466;2023-04-03T01:26:15;6.17;54.02
68098;DHT22;54886;47.036;15.466;2023-04-03T01:28:40;6.14;54.11
68098;DHT22;54886;47.036;15.466;2023-04-03T01:31:41;6.14;53.78
68098;DHT22;54886;47.036;15.466;2023-04-03T01:34:07;6.10;54.03
68098;DHT22;54886;47.036;15.466;2023-04-03T01:36:32;6.06;53.94
68098;DHT22;54886;47.036;15.466;2023-04-03T01:38:58;5.94;54.43
68098;DHT22;54886;47.036;15.466;2023-04-03T01:41:25;6.00;55.65
68098;DHT22;54886;47.036;15.466;2023-04-03T01:43:51;5.96;55.16
68098;DHT22;54886;47.036;15.466;2023-04-03T01:46:18;5.97;55.23
68098;DHT22;54886;47.036;15.466;2023-04-03T01:48:43;5.99;54.47
68098;DHT22;54886;47.036;15.466;2023-04-03T01:51:09;5.99;54.66
68098;DHT22;54886;47.036;15.466;2023-04-03T01:53:35;5.97;54.64
68098;DHT22;54886;47.036;15.466;2023-04-03T01:56:00;5.99;53.84
68098;DHT22;54886;47.036;15.466;2023-04-03T01:58:25;5.96;53.70
68098;DHT22;54886;47.036;15.466;2023-04-03T02:00:51;5.87;54.14
68098;DHT22;54886;47.036;15.466;2023-04-03T02:03:17;5.86;54.49
68098;DHT22;54886;47.036;15.466;2023-04-03T02:05:42;5.85;54.29
68098;DHT22;54886;47.036;15.466;2023-04-03T02:08:08;5.82;53.65
68098;DHT22;54886;47.036;15.466;2023-04-03T02:10:33;5.82;54.28
68098;DHT22;54886;47.036;15.466;2023-04-03T02:12:59;5.83;53.75
68098;DHT22;54886;47.036;15.466;2023-04-03T02:15:24;5.80;54.07
68098;DHT22;54886;47.036;15.466;2023-04-03T02:17:50;5.79;54.26
68098;DHT22;54886;47.036;15.466;2023-04-03T02:20:16;5.75;54.06
68098;DHT22;54886;47.036;15.466;2023-04-03T02:22:41;5.73;54.23
68098;DHT22;54886;47.036;15.466;2023-04-03T02:25:07;5.79;54.26
68098;DHT22;54886;47.036;15.466;2023-04-03T02:27:32;5.75;54.47
68098;DHT22;54886;47.036;15.466;2023-04-03T02:29:58;5.76;53.99
68098;DHT22;54886;47.036;15.466;2023-04-03T02:32:23;5.77;54.13
68098;DHT22;54886;47.036;15.466;2023-04-03T02:34:49;5.75;54.26
68098;DHT22;54886;47.036;15.466;2023-04-03T02:37:14;5.79;54.05
68098;DHT22;54886;47.036;15.466;2023-04-03T02:39:40;5.68;54.58
68098;DHT22;54886;47.036;15.466;2023-04-03T02:42:05;5.68;54.36
68098;DHT22;54886;47.036;15.466;2023-04-03T02:44:31;5.63;54.64
68098;DHT22;54886;47.036;15.466;2023-04-03T02:46:56;5.59;54.52
68098;DHT22;54886;47.036;15.466;2023-04-03T02:49:21;5.51;54.91
68098;DHT22;54886;47.036;15.466;2023-04-03T02:51:47;5.49;54.85
68098;DHT22;54886;47.036;15.466;2023-04-03T02:54:13;5.44;55.02
68098;DHT22;54886;47.036;15.466;2023-04-03T02:56:38;5.42;55.74
68098;DHT22;54886;47.036;15.466;2023-04-03T02:59:04;5.37;56.12
68098;DHT22;54886;47.036;15.466;2023-04-03T03:01:30;5.24;57.16
68098;DHT22;54886;47.036;15.466;2023-04-03T03:03:58;5.24;57.46
68098;DHT22;54886;47.036;15.466;2023-04-03T03:06:24;5.24;57.61
68098;DHT22;54886;47.036;15.466;2023-04-03T03:08:49;5.19;56.65
68098;DHT22;54886;47.036;15.466;2023-04-03T03:11:15;5.20;55.87
68098;DHT22;54886;47.036;15.466;2023-04-03T03:13:40;5.19;56.29
68098;DHT22;54886;47.036;15.466;2023-04-03T03:16:07;5.19;57.02
68098;DHT22;54886;47.036;15.466;2023-04-03T03:18:33;5.23;56.06
68098;DHT22;54886;47.036;15.466;2023-04-03T03:21:00;5.21;57.86
68098;DHT22;54886;47.036;15.466;2023-04-03T03:23:27;5.26;58.13
68098;DHT22;54886;47.036;15.466;2023-04-03T03:25:58;5.26;58.20
68098;DHT22;54886;47.036;15.466;2023-04-03T03:28:24;5.16;56.21
68098;DHT22;54886;47.036;15.466;2023-04-03T03:30:50;5.14;58.22
68098;DHT22;54886;47.036;15.466;2023-04-03T03:33:16;5.04;58.36
68098;DHT22;54886;47.036;15.466;2023-04-03T03:35:42;4.92;57.29
68098;DHT22;54886;47.036;15.466;2023-04-03T03:38:08;4.97;57.14
68098;DHT22;54886;47.036;15.466;2023-04-03T03:40:33;5.00;56.79
68098;DHT22;54886;47.036;15.466;2023-04-03T03:42:59;5.04;56.34
68098;DHT22;54886;47.036;15.466;2023-04-03T03:45:25;5.10;55.77
68098;DHT22;54886;47.036;15.466;2023-04-03T03:47:50;5.09;56.12
68098;DHT22;54886;47.036;15.466;2023-04-03T03:50:16;5.19;55.54
68098;DHT22;54886;47.036;15.466;2023-04-03T03:52:41;5.11;56.55
68098;DHT22;54886;47.036;15.466;2023-04-03T03:55:07;5.13;56.35
68098;DHT22;54886;47.036;15.466;2023-04-03T03:57:32;5.13;56.16
68098;DHT22;54886;47.036;15.466;2023-04-03T03:59:57;5.16;55.79
68098;DHT22;54886;47.036;15.466;2023-04-03T04:02:23;5.17;56.16
68098;DHT22;54886;47.036;15.466;2023-04-03T04:04:48;5.19;55.82
68098;DHT22;54886;47.036;15.466;2023-04-03T04:07:14;5.19;55.67
68098;DHT22;54886;47.036;15.466;2023-04-03T04:09:39;5.24;55.47
68098;DHT22;54886;47.036;15.466;2023-04-03T04:12:05;5.24;55.58
68098;DHT22;54886;47.036;15.466;2023-04-03T04:14:31;5.23;56.16
68098;DHT22;54886;47.036;15.466;2023-04-03T04:16:56;5.21;55.98
68098;DHT22;54886;47.036;15.466;2023-04-03T04:19:21;5.21;55.62
68098;DHT22;54886;47.036;15.466;2023-04-03T04:21:47;5.23;55.45
68098;DHT22;54886;47.036;15.466;2023-04-03T04:24:12;5.20;55.80
68098;DHT22;54886;47.036;15.466;2023-04-03T04:26:37;5.19;56.33
68098;DHT22;54886;47.036;15.466;2023-04-03T04:29:03;5.20;57.29
68098;DHT22;54886;47.036;15.466;2023-04-03T04:31:28;5.21;56.88
68098;DHT22;54886;47.036;15.466;2023-04-03T04:33:54;5.19;56.70
68098;DHT22;54886;47.036;15.466;2023-04-03T04:36:19;5.24;57.93
68098;DHT22;54886;47.036;15.466;2023-04-03T04:38:45;5.26;58.39
68098;DHT22;54886;47.036;15.466;2023-04-03T04:41:10;5.26;59.22
68098;DHT22;54886;47.036;15.466;2023-04-03T04:43:35;5.23;57.79
68098;DHT22;54886;47.036;15.466;2023-04-03T04:46:06;5.24;57.80
68098;DHT22;54886;47.036;15.466;2023-04-03T04:48:31;5.26;57.11
68098;DHT22;54886;47.036;15.466;2023-04-03T04:50:57;5.27;56.91
68098;DHT22;54886;47.036;15.466;2023-04-03T04:53:22;5.27;56.64
68098;DHT22;54886;47.036;15.466;2023-04-03T04:55:47;5.28;56.70
68098;DHT22;54886;47.036;15.466;2023-04-03T04:58:13;5.28;59.22
68098;DHT22;54886;47.036;15.466;2023-04-03T05:00:38;5.30;58.21
68098;DHT22;54886;47.036;15.466;2023-04-03T05:03:04;5.30;58.20
68098;DHT22;54886;47.036;15.466;2023-04-03T05:05:30;5.32;58.99
68098;DHT22;54886;47.036;15.466;2023-04-03T05:07:55;5.34;59.87
68098;DHT22;54886;47.036;15.466;2023-04-03T05:10:20;5.37;59.54
68098;DHT22;54886;47.036;15.466;2023-04-03T05:12:46;5.35;59.94
68098;DHT22;54886;47.036;15.466;2023-04-03T05:15:11;5.38;58.71
68098;DHT22;54886;47.036;15.466;2023-04-03T05:17:37;5.41;57.66
68098;DHT22;54886;47.036;15.466;2023-04-03T05:20:03;5.42;57.91
68098;DHT22;54886;47.036;15.466;2023-04-03T05:22:30;5.45;57.50
68098;DHT22;54886;47.036;15.466;2023-04-03T05:24:55;5.49;57.07
68098;DHT22;54886;47.036;15.466;2023-04-03T05:27:21;5.58;55.74
68098;DHT22;54886;47.036;15.466;2023-04-03T05:29:48;5.60;55.39
68098;DHT22;54886;47.036;15.466;2023-04-03T05:32:13;5.62;54.78
68098;DHT22;54886;47.036;15.466;2023-04-03T05:34:39;5.68;55.00
68098;DHT22;54886;47.036;15.466;2023-04-03T05:37:04;5.70;55.08
68098;DHT22;54886;47.036;15.466;2023-04-03T05:39:30;5.77;54.87
68098;DHT22;54886;47.036;15.466;2023-04-03T05:41:57;5.77;54.30
68098;DHT22;54886;47.036;15.466;2023-04-03T05:44:22;5.80;55.31
68098;DHT22;54886;47.036;15.466;2023-04-03T05:46:47;5.80;54.19
68098;DHT22;54886;47.036;15.466;2023-04-03T05:49:13;5.82;54.55
68098;DHT22;54886;47.036;15.466;2023-04-03T05:51:39;5.83;54.76
68098;DHT22;54886;47.036;15.466;2023-04-03T05:54:22;5.89;54.01
68098;DHT22;54886;47.036;15.466;2023-04-03T05:56:49;5.87;54.11
68098;DHT22;54886;47.036;15.466;2023-04-03T05:59:15;5.93;53.33
68098;DHT22;54886;47.036;15.466;2023-04-03T06:01:40;5.93;53.67
68098;DHT22;54886;47.036;15.466;2023-04-03T06:04:06;5.94;53.74
68098;DHT22;54886;47.036;15.466;2023-04-03T06:06:54;6.02;53.16
68098;DHT22;54886;47.036;15.466;2023-04-03T06:09:22;6.03;52.96
68098;DHT22;54886;47.036;15.466;2023-04-03T06:11:47;6.00;52.32
68098;DHT22;54886;47.036;15.466;2023-04-03T06:14:13;6.03;52.30
68098;DHT22;54886;47.036;15.466;2023-04-03T06:16:39;6.06;53.02
68098;DHT22;54886;47.036;15.466;2023-04-03T06:19:05;6.09;53.46
68098;DHT22;54886;47.036;15.466;2023-04-03T06:21:31;6.09;53.69
68098;DHT22;54886;47.036;15.466;2023-04-03T06:23:56;6.11;53.27
68098;DHT22;54886;47.036;15.466;2023-04-03T06:26:22;6.16;53.84
68098;DHT22;54886;47.036;15.466;2023-04-03T06:28:47;6.20;52.53
68098;DHT22;54886;47.036;15.466;2023-04-03T06:31:13;6.21;52.56
68098;DHT22;54886;47.036;15.466;2023-04-03T06:33:38;6.22;52.70
68098;DHT22;54886;47.036;15.466;2023-04-03T06:36:04;6.22;53.08
68098;DHT22;54886;47.036;15.466;2023-04-03T06:38:31;6.28;53.03
68098;DHT22;54886;47.036;15.466;2023-04-03T06:40:56;6.31;52.52
68098;DHT22;54886;47.036;15.466;2023-04-03T06:43:22;6.34;52.40
68098;DHT22;54886;47.036;15.466;2023-04-03T06:45:47;6.34;52.49
68098;DHT22;54886;47.036;15.466;2023-04-03T06:48:13;6.42;52.06
68098;DHT22;54886;47.036;15.466;2023-04-03T06:50:38;6.55;51.96
68098;DHT22;54886;47.036;15.466;2023-04-03T06:53:04;6.62;52.16
68098;DHT22;54886;47.036;15.466;2023-04-03T06:55:30;6.86;50.88
68098;DHT22;54886;47.036;15.466;2023-04-03T06:57:56;6.86;50.97
68098;DHT22;54886;47.036;15.466;2023-04-03T07:00:22;6.86;51.77
68098;DHT22;54886;47.036;15.466;2023-04-03T07:02:47;6.87;51.88
68098;DHT22;54886;47.036;15.466;2023-04-03T07:05:13;6.86;51.63
68098;DHT22;54886;47.036;15.466;2023-04-03T07:07:39;6.89;51.62
68098;DHT22;54886;47.036;15.466;2023-04-03T07:10:06;6.89;51.29
68098;DHT22;54886;47.036;15.466;2023-04-03T07:12:31;6.90;51.47
68098;DHT22;54886;47.036;15.466;2023-04-03T07:14:58;6.97;51.80
68098;DHT22;54886;47.036;15.466;2023-04-03T07:17:23;7.10;51.52
68098;DHT22;54886;47.036;15.466;2023-04-03T07:19:49;7.18;51.24
68098;DHT22;54886;47.036;15.466;2023-04-03T07:22:14;7.15;51.65
68098;DHT22;54886;47.036;15.466;2023-04-03T07:24:39;7.17;51.01
68098;DHT22;54886;47.036;15.466;2023-04-03T07:27:05;7.21;50.95
68098;DHT22;54886;47.036;15.466;2023-04-03T07:29:31;7.36;50.89
68098;DHT22;54886;47.036;15.466;2023-04-03T07:31:56;7.41;48.70
68098;DHT22;54886;47.036;15.466;2023-04-03T07:34:22;7.45;49.54
68098;DHT22;54886;47.036;15.466;2023-04-03T07:36:47;7.54;50.07
68098;DHT22;54886;47.036;15.466;2023-04-03T07:39:12;7.58;50.13
68098;DHT22;54886;47.036;15.466;2023-04-03T07:41:38;7.54;48.99
68098;DHT22;54886;47.036;15.466;2023-04-03T07:44:03;7.52;48.95
68098;DHT22;54886;47.036;15.466;2023-04-03T07:46:30;7.44;47.94
68098;DHT22;54886;47.036;15.466;2023-04-03T07:48:55;7.42;48.51
68098;DHT22;54886;47.036;15.466;2023-04-03T07:51:20;7.41;47.99
68098;DHT22;54886;47.036;15.466;2023-04-03T07:53:46;7.36;47.67
68098;DHT22;54886;47.036;15.466;2023-04-03T07:56:11;7.38;48.24
68098;DHT22;54886;47.036;15.466;2023-04-03T07:58:37;7.38;48.17
68098;DHT22;54886;47.036;15.466;2023-04-03T08:01:02;7.47;46.88
68098;DHT22;54886;47.036;15.466;2023-04-03T08:03:28;7.51;47.23
68098;DHT22;54886;47.036;15.466;2023-04-03T08:05:53;7.47;46.58
68098;DHT22;54886;47.036;15.466;2023-04-03T08:08:21;7.41;46.87
68098;DHT22;54886;47.036;15.466;2023-04-03T08:10:51;7.45;46.84
68098;DHT22;54886;47.036;15.466;2023-04-03T08:13:17;7.41;46.68
68098;DHT22;54886;47.036;15.466;2023-04-03T08:15:43;7.41;45.67
68098;DHT22;54886;47.036;15.466;2023-04-03T08:18:09;7.48;45.63
68098;DHT22;54886;47.036;15.466;2023-04-03T08:20:34;7.52;45.21
68098;DHT22;54886;47.036;15.466;2023-04-03T08:22:59;7.54;45.53
68098;DHT22;54886;47.036;15.466;2023-04-03T08:25:25;7.61;44.26
68098;DHT22;54886;47.036;15.466;2023-04-03T08:27:51;7.65;44.39
68098;DHT22;54886;47.036;15.466;2023-04-03T08:30:16;7.69;43.32
68098;DHT22;54886;47.036;15.466;2023-04-03T08:32:42;7.70;43.39
68098;DHT22;54886;47.036;15.466;2023-04-03T08:35:09;7.75;43.60
68098;DHT22;54886;47.036;15.466;2023-04-03T08:37:36;7.70;43.58
68098;DHT22;54886;47.036;15.466;2023-04-03T08:40:03;7.69;43.17
68098;DHT22;54886;47.036;15.466;2023-04-03T08:50:18;7.69;42.89
68098;DHT22;54886;47.036;15.466;2023-04-03T08:52:48;7.69;42.76
68098;DHT22;54886;47.036;15.466;2023-04-03T08:55:28;7.75;41.94
68098;DHT22;54886;47.036;15.466;2023-04-03T08:58:00;7.80;42.83
68098;DHT22;54886;47.036;15.466;2023-04-03T09:00:30;7.77;41.79
68098;DHT22;54886;47.036;15.466;2023-04-03T09:02:57;7.73;41.93
68098;DHT22;54886;47.036;15.466;2023-04-03T09:10:48;7.80;41.20
68098;DHT22;54886;47.036;15.466;2023-04-03T09:13:29;7.85;41.67
68098;DHT22;54886;47.036;15.466;2023-04-03T09:15:56;7.79;41.45
68098;DHT22;54886;47.036;15.466;2023-04-03T09:18:45;7.77;40.65
68098;DHT22;54886;47.036;15.466;2023-04-03T09:21:17;7.77;40.31
68098;DHT22;54886;47.036;15.466;2023-04-03T09:23:53;7.77;40.60
68098;DHT22;54886;47.036;15.466;2023-04-03T09:26:26;7.85;40.96
68098;DHT22;54886;47.036;15.466;2023-04-03T09:28:56;7.85;38.93
68098;DHT22;54886;47.036;15.466;2023-04-03T09:31:25;7.80;39.05
68098;DHT22;54886;47.036;15.466;2023-04-03T09:33:56;7.77;38.90
68098;DHT22;54886;47.036;15.466;2023-04-03T09:36:58;7.87;39.36
68098;DHT22;54886;47.036;15.466;2023-04-03T09:39:28;7.82;39.32
68098;DHT22;54886;47.036;15.466;2023-04-03T09:42:18;7.75;39.84
68098;DHT22;54886;47.036;15.466;2023-04-03T09:47:25;7.76;40.45
68098;DHT22;54886;47.036;15.466;2023-04-03T09:52:34;7.79;39.98
68098;DHT22;54886;47.036;15.466;2023-04-03T09:55:07;7.93;39.12
68098;DHT22;54886;47.036;15.466;2023-04-03T09:57:33;7.87;39.20
68098;DHT22;54886;47.036;15.466;2023-04-03T10:00:00;7.85;39.31
68098;DHT22;54886;47.036;15.466;2023-04-03T10:02:43;7.83;39.09
68098;DHT22;54886;47.036;15.466;2023-04-03T10:05:40;7.87;39.72
68098;DHT22;54886;47.036;15.466;2023-04-03T10:10:45;7.97;39.19
68098;DHT22;54886;47.036;15.466;2023-04-03T10:13:17;7.96;39.83
68098;DHT22;54886;47.036;15.466;2023-04-03T10:15:56;8.07;38.77
68098;DHT22;54886;47.036;15.466;2023-04-03T10:18:44;8.10;38.72
68098;DHT22;54886;47.036;15.466;2023-04-03T10:27:00;8.08;38.91
68098;DHT22;54886;47.036;15.466;2023-04-03T10:29:46;8.25;39.25
68098;DHT22;54886;47.036;15.466;2023-04-03T10:32:24;8.38;40.06
68098;DHT22;54886;47.036;15.466;2023-04-03T10:40:42;8.34;39.56
68098;DHT22;54886;47.036;15.466;2023-04-03T10:43:17;8.31;40.10
68098;DHT22;54886;47.036;15.466;2023-04-03T10:49:03;8.45;40.50
68098;DHT22;54886;47.036;15.466;2023-04-03T10:51:48;8.49;40.60
68098;DHT22;54886;47.036;15.466;2023-04-03T10:54:25;8.51;41.49
68098;DHT22;54886;47.036;15.466;2023-04-03T10:56:57;8.53;41.20
68098;DHT22;54886;47.036;15.466;2023-04-03T10:59:36;8.49;41.18
68098;DHT22;54886;47.036;15.466;2023-04-03T11:02:18;8.53;40.84
68098;DHT22;54886;47.036;15.466;2023-04-03T11:05:15;8.51;40.90
68098;DHT22;54886;47.036;15.466;2023-04-03T11:07:42;8.52;40.23
68098;DHT22;54886;47.036;15.466;2023-04-03T11:10:18;8.52;39.44
68098;DHT22;54886;47.036;15.466;2023-04-03T11:12:49;8.52;39.07
68098;DHT22;54886;47.036;15.466;2023-04-03T11:15:17;8.49;39.02
68098;DHT22;54886;47.036;15.466;2023-04-03T11:17:49;8.42;39.16
68098;DHT22;54886;47.036;15.466;2023-04-03T11:20:27;8.41;38.39
68098;DHT22;54886;47.036;15.466;2023-04-03T11:23:03;8.48;38.05
68098;DHT22;54886;47.036;15.466;2023-04-03T11:25:30;8.28;38.43
68098;DHT22;54886;47.036;15.466;2023-04-03T11:28:05;8.30;37.97
68098;DHT22;54886;47.036;15.466;2023-04-03T11:33:52;8.25;38.17
68098;DHT22;54886;47.036;15.466;2023-04-03T11:36:12;8.27;38.54
68098;DHT22;54886;47.036;15.466;2023-04-03T11:38:43;8.28;38.78
68098;DHT22;54886;47.036;15.466;2023-04-03T11:41:11;8.25;39.16
68098;DHT22;54886;47.036;15.466;2023-04-03T11:43:42;8.31;38.73
68098;DHT22;54886;47.036;15.466;2023-04-03T11:46:20;8.27;38.49
68098;DHT22;54886;47.036;15.466;2023-04-03T11:48:48;8.32;39.52
68098;DHT22;54886;47.036;15.466;2023-04-03T11:53:43;8.40;40.17
68098;DHT22;54886;47.036;15.466;2023-04-03T12:01:49;8.41;38.90
68098;DHT22;54886;47.036;15.466;2023-04-03T12:04:18;8.44;38.52
68098;DHT22;54886;47.036;15.466;2023-04-03T12:14:51;8.51;38.71
68098;DHT22;54886;47.036;15.466;2023-04-03T12:17:26;8.41;38.76
68098;DHT22;54886;47.036;15.466;2023-04-03T12:19:52;8.41;39.04
68098;DHT22;54886;47.036;15.466;2023-04-03T12:22:20;8.41;38.82
68098;DHT22;54886;47.036;15.466;2023-04-03T12:24:51;8.53;38.15
68098;DHT22;54886;47.036;15.466;2023-04-03T12:27:25;8.55;39.31
68098;DHT22;54886;47.036;15.466;2023-04-03T12:40:21;8.77;37.57
68098;DHT22;54886;47.036;15.466;2023-04-03T12:45:25;8.76;37.21
68098;DHT22;54886;47.036;15.466;2023-04-03T12:47:54;8.79;36.65
68098;DHT22;54886;47.036;15.466;2023-04-03T12:50:27;8.77;37.66
68098;DHT22;54886;47.036;15.466;2023-04-03T12:53:03;8.63;38.07
68098;DHT22;54886;47.036;15.466;2023-04-03T12:55:29;8.75;37.62
68098;DHT22;54886;47.036;15.466;2023-04-03T12:57:54;8.86;37.13
68098;DHT22;54886;47.036;15.466;2023-04-03T13:02:46;8.96;37.15
68098;DHT22;54886;47.036;15.466;2023-04-03T13:05:17;8.94;35.88
68098;DHT22;54886;47.036;15.466;2023-04-03T13:07:44;8.86;36.52
68098;DHT22;54886;47.036;15.466;2023-04-03T13:10:16;8.83;38.22
68098;DHT22;54886;47.036;15.466;2023-04-03T13:12:54;8.77;37.80
68098;DHT22;54886;47.036;15.466;2023-04-03T13:15:22;8.72;37.66
68098;DHT22;54886;47.036;15.466;2023-04-03T13:17:48;8.72;37.10
68098;DHT22;54886;47.036;15.466;2023-04-03T13:20:28;8.69;37.92
68098;DHT22;54886;47.036;15.466;2023-04-03T13:23:01;8.68;37.16
68098;DHT22;54886;47.036;15.466;2023-04-03T13:25:30;8.65;37.99
68098;DHT22;54886;47.036;15.466;2023-04-03T13:27:58;8.66;36.61
68098;DHT22;54886;47.036;15.466;2023-04-03T13:30:30;8.62;37.65
68098;DHT22;54886;47.036;15.466;2023-04-03T13:33:00;8.56;37.03
68098;DHT22;54886;47.036;15.466;2023-04-03T13:35:40;8.56;36.81
68098;DHT22;54886;47.036;15.466;2023-04-03T13:40:57;8.68;37.30
68098;DHT22;54886;47.036;15.466;2023-04-03T13:43:28;8.73;36.88
68098;DHT22;54886;47.036;15.466;2023-04-03T13:46:20;8.66;37.37
68098;DHT22;54886;47.036;15.466;2023-04-03T13:48:45;8.73;36.17
68098;DHT22;54886;47.036;15.466;2023-04-03T13:56:34;8.97;36.45
68098;DHT22;54886;47.036;15.466;2023-04-03T14:01:47;8.94;35.96
68098;DHT22;54886;47.036;15.466;2023-04-03T14:04:25;8.91;35.35
68098;DHT22;54886;47.036;15.466;2023-04-03T14:06:52;8.81;35.43
68098;DHT22;54886;47.036;15.466;2023-04-03T14:09:19;8.83;34.45
68098;DHT22;54886;47.036;15.466;2023-04-03T14:11:46;8.77;35.69
68098;DHT22;54886;47.036;15.466;2023-04-03T14:14:16;8.77;36.41
68098;DHT22;54886;47.036;15.466;2023-04-03T14:16:45;8.84;36.60
68098;DHT22;54886;47.036;15.466;2023-04-03T14:19:25;8.94;36.73
68098;DHT22;54886;47.036;15.466;2023-04-03T14:21:51;9.07;35.64
68098;DHT22;54886;47.036;15.466;2023-04-03T14:24:18;9.03;35.09
68098;DHT22;54886;47.036;15.466;2023-04-03T14:26:44;9.11;35.37
68098;DHT22;54886;47.036;15.466;2023-04-03T14:29:11;9.06;35.13
68098;DHT22;54886;47.036;15.466;2023-04-03T14:31:37;9.01;35.56
68098;DHT22;54886;47.036;15.466;2023-04-03T14:34:02;9.01;36.64
68098;DHT22;54886;47.036;15.466;2023-04-03T14:36:28;9.06;36.10
68098;DHT22;54886;47.036;15.466;2023-04-03T14:38:54;9.04;35.46
68098;DHT22;54886;47.036;15.466;2023-04-03T14:41:23;8.97;35.30
68098;DHT22;54886;47.036;15.466;2023-04-03T14:43:49;9.10;35.43
68098;DHT22;54886;47.036;15.466;2023-04-03T14:46:21;9.13;35.01
68098;DHT22;54886;47.036;15.466;2023-04-03T14:48:47;9.10;35.21
68098;DHT22;54886;47.036;15.466;2023-04-03T14:51:14;9.10;35.34
68098;DHT22;54886;47.036;15.466;2023-04-03T14:53:41;9.20;35.66
68098;DHT22;54886;47.036;15.466;2023-04-03T14:56:25;9.20;35.72
68098;DHT22;54886;47.036;15.466;2023-04-03T14:58:58;9.24;34.21
68098;DHT22;54886;47.036;15.466;2023-04-03T15:01:24;9.20;34.62
68098;DHT22;54886;47.036;15.466;2023-04-03T15:03:49;9.15;35.86
68098;DHT22;54886;47.036;15.466;2023-04-03T15:06:15;9.20;35.40
68098;DHT22;54886;47.036;15.466;2023-04-03T15:08:42;9.08;35.14
68098;DHT22;54886;47.036;15.466;2023-04-03T15:11:13;9.10;35.49
68098;DHT22;54886;47.036;15.466;2023-04-03T15:13:39;9.11;35.09
68098;DHT22;54886;47.036;15.466;2023-04-03T15:16:06;8.97;34.66
68098;DHT22;54886;47.036;15.466;2023-04-03T15:18:37;9.04;34.63
68098;DHT22;54886;47.036;15.466;2023-04-03T15:21:03;9.06;34.52
68098;DHT22;54886;47.036;15.466;2023-04-03T15:23:29;9.08;34.92
68098;DHT22;54886;47.036;15.466;2023-04-03T15:25:55;9.10;35.32
68098;DHT22;54886;47.036;15.466;2023-04-03T15:30:52;8.88;34.87
68098;DHT22;54886;47.036;15.466;2023-04-03T15:33:18;8.94;35.08
68098;DHT22;54886;47.036;15.466;2023-04-03T15:35:43;8.94;34.01
68098;DHT22;54886;47.036;15.466;2023-04-03T15:38:09;8.90;34.14
68098;DHT22;54886;47.036;15.466;2023-04-03T15:40:35;8.83;33.79
68098;DHT22;54886;47.036;15.466;2023-04-03T15:43:01;8.76;34.65
68098;DHT22;54886;47.036;15.466;2023-04-03T15:45:29;8.75;35.18
68098;DHT22;54886;47.036;15.466;2023-04-03T15:47:55;8.76;34.20
68098;DHT22;54886;47.036;15.466;2023-04-03T15:50:21;8.65;34.67
68098;DHT22;54886;47.036;15.466;2023-04-03T15:52:48;8.63;34.32
68098;DHT22;54886;47.036;15.466;2023-04-03T15:55:19;8.52;35.13
68098;DHT22;54886;47.036;15.466;2023-04-03T15:57:45;8.51;34.54
68098;DHT22;54886;47.036;15.466;2023-04-03T16:00:10;8.41;34.51
68098;DHT22;54886;47.036;15.466;2023-04-03T16:02:36;8.40;34.99
68098;DHT22;54886;47.036;15.466;2023-04-03T16:05:02;8.44;35.06
68098;DHT22;54886;47.036;15.466;2023-04-03T16:07:27;8.30;34.92
68098;DHT22;54886;47.036;15.466;2023-04-03T16:09:53;8.35;35.73
68098;DHT22;54886;47.036;15.466;2023-04-03T16:12:18;8.30;35.16
68098;DHT22;54886;47.036;15.466;2023-04-03T16:14:44;8.21;35.00
68098;DHT22;54886;47.036;15.466;2023-04-03T16:17:09;8.24;36.36
68098;DHT22;54886;47.036;15.466;2023-04-03T16:19:34;8.14;35.69
68098;DHT22;54886;47.036;15.466;2023-04-03T16:22:01;8.15;35.67
68098;DHT22;54886;47.036;15.466;2023-04-03T16:24:26;8.15;35.99
68098;DHT22;54886;47.036;15.466;2023-04-03T16:26:52;8.15;35.68
68098;DHT22;54886;47.036;15.466;2023-04-03T16:29:18;8.05;35.71
68098;DHT22;54886;47.036;15.466;2023-04-03T16:31:44;8.01;35.42
68098;DHT22;54886;47.036;15.466;2023-04-03T16:34:09;7.96;34.92
68098;DHT22;54886;47.036;15.466;2023-04-03T16:36:35;7.80;35.32
68098;DHT22;54886;47.036;15.466;2023-04-03T16:39:02;7.76;36.04
68098;DHT22;54886;47.036;15.466;2023-04-03T16:41:28;7.70;36.30
68098;DHT22;54886;47.036;15.466;2023-04-03T16:43:53;7.76;36.08
68098;DHT22;54886;47.036;15.466;2023-04-03T16:46:19;7.66;36.07
68098;DHT22;54886;47.036;15.466;2023-04-03T16:48:44;7.66;35.74
68098;DHT22;54886;47.036;15.466;2023-04-03T16:51:12;7.51;35.85
68098;DHT22;54886;47.036;15.466;2023-04-03T16:53:37;7.47;36.55
68098;DHT22;54886;47.036;15.466;2023-04-03T16:56:03;7.44;35.62
68098;DHT22;54886;47.036;15.466;2023-04-03T16:58:28;7.41;36.24
68098;DHT22;54886;47.036;15.466;2023-04-03T17:00:54;7.38;36.19
68098;DHT22;54886;47.036;15.466;2023-04-03T17:03:20;7.31;37.00